sensor_id;sensor_type;location;lat;lon;timestamp;P1;durP1;ratioP1;P2;durP2;ratioP2
32172;SDS011;18679;45.190;5.722;2022-10-16T00:02:38;12.77;;;2.83;;
32172;SDS011;18679;45.190;5.722;2022-10-16T00:05:40;5.13;;;1.85;;
32172;SDS011;18679;45.190;5.722;2022-10-16T00:08:42;2.67;;;1.63;;
32172;SDS011;18679;45.190;5.722;2022-10-16T00:11:45;5.75;;;2.35;;
32172;SDS011;18679;45.190;5.722;2022-10-16T00:14:45;5.00;;;2.20;;
32172;SDS011;18679;45.190;5.722;2022-10-16T00:17:46;7.03;;;2.10;;
32172;SDS011;18679;45.190;5.722;2022-10-16T00:20:47;7.38;;;1.92;;
32172;SDS011;18679;45.190;5.722;2022-10-16T00:23:55;3.50;;;1.95;;
32172;SDS011;18679;45.190;5.722;2022-10-16T00:27:00;9.13;;;2.10;;
32172;SDS011;18679;45.190;5.722;2022-10-16T00:30:01;5.45;;;2.97;;
32172;SDS011;18679;45.190;5.722;2022-10-16T00:33:03;4.97;;;2.95;;
32172;SDS011;18679;45.190;5.722;2022-10-16T00:36:04;11.85;;;2.50;;
32172;SDS011;18679;45.190;5.722;2022-10-16T00:39:06;5.45;;;2.67;;
32172;SDS011;18679;45.190;5.722;2022-10-16T00:42:09;7.78;;;2.30;;
32172;SDS011;18679;45.190;5.722;2022-10-16T00:45:20;3.50;;;2.13;;
32172;SDS011;18679;45.190;5.722;2022-10-16T00:48:21;3.50;;;1.88;;
32172;SDS011;18679;45.190;5.722;2022-10-16T00:51:23;4.15;;;2.00;;
32172;SDS011;18679;45.190;5.722;2022-10-16T00:54:29;3.13;;;1.80;;
32172;SDS011;18679;45.190;5.722;2022-10-16T00:57:31;4.00;;;2.42;;
32172;SDS011;18679;45.190;5.722;2022-10-16T01:00:32;13.20;;;2.53;;
32172;SDS011;18679;45.190;5.722;2022-10-16T01:03:34;8.13;;;1.77;;
32172;SDS011;18679;45.190;5.722;2022-10-16T01:06:39;3.83;;;1.83;;
32172;SDS011;18679;45.190;5.722;2022-10-16T01:13:22;3.80;;;1.95;;
32172;SDS011;18679;45.190;5.722;2022-10-16T01:17:02;3.40;;;2.00;;
32172;SDS011;18679;45.190;5.722;2022-10-16T01:20:10;4.95;;;2.20;;
32172;SDS011;18679;45.190;5.722;2022-10-16T01:26:45;5.60;;;2.03;;
32172;SDS011;18679;45.190;5.722;2022-10-16T01:30:38;4.70;;;1.67;;
32172;SDS011;18679;45.190;5.722;2022-10-16T01:33:43;2.85;;;1.70;;
32172;SDS011;18679;45.190;5.722;2022-10-16T01:36:52;6.95;;;1.88;;
32172;SDS011;18679;45.190;5.722;2022-10-16T01:39:58;2.63;;;1.70;;
32172;SDS011;18679;45.190;5.722;2022-10-16T01:43:03;5.45;;;2.00;;
32172;SDS011;18679;45.190;5.722;2022-10-16T01:46:08;6.13;;;2.58;;
32172;SDS011;18679;45.190;5.722;2022-10-16T01:49:13;9.50;;;2.67;;
32172;SDS011;18679;45.190;5.722;2022-10-16T01:52:17;5.47;;;2.47;;
32172;SDS011;18679;45.190;5.722;2022-10-16T01:55:24;7.93;;;2.58;;
32172;SDS011;18679;45.190;5.722;2022-10-16T01:58:30;4.77;;;2.57;;
32172;SDS011;18679;45.190;5.722;2022-10-16T02:01:36;5.35;;;2.45;;
32172;SDS011;18679;45.190;5.722;2022-10-16T02:04:42;7.65;;;2.92;;
32172;SDS011;18679;45.190;5.722;2022-10-16T02:07:47;5.60;;;2.20;;
32172;SDS011;18679;45.190;5.722;2022-10-16T02:10:48;11.18;;;2.90;;
32172;SDS011;18679;45.190;5.722;2022-10-16T02:13:58;6.95;;;2.72;;
32172;SDS011;18679;45.190;5.722;2022-10-16T02:17:09;5.03;;;2.20;;
32172;SDS011;18679;45.190;5.722;2022-10-16T02:20:11;4.45;;;2.35;;
32172;SDS011;18679;45.190;5.722;2022-10-16T02:23:13;5.40;;;2.83;;
32172;SDS011;18679;45.190;5.722;2022-10-16T02:26:28;6.60;;;2.70;;
32172;SDS011;18679;45.190;5.722;2022-10-16T02:29:42;11.65;;;2.47;;
32172;SDS011;18679;45.190;5.722;2022-10-16T02:35:51;4.60;;;2.08;;
32172;SDS011;18679;45.190;5.722;2022-10-16T02:38:53;3.70;;;2.05;;
32172;SDS011;18679;45.190;5.722;2022-10-16T02:41:55;11.73;;;2.10;;
32172;SDS011;18679;45.190;5.722;2022-10-16T02:44:56;6.00;;;2.33;;
32172;SDS011;18679;45.190;5.722;2022-10-16T02:47:57;5.88;;;2.33;;
32172;SDS011;18679;45.190;5.722;2022-10-16T02:50:58;3.33;;;1.77;;
32172;SDS011;18679;45.190;5.722;2022-10-16T02:53:58;3.90;;;2.10;;
32172;SDS011;18679;45.190;5.722;2022-10-16T02:56:59;5.35;;;2.10;;
32172;SDS011;18679;45.190;5.722;2022-10-16T03:00:00;4.35;;;2.10;;
32172;SDS011;18679;45.190;5.722;2022-10-16T03:03:01;10.55;;;2.17;;
32172;SDS011;18679;45.190;5.722;2022-10-16T03:06:02;6.38;;;1.90;;
32172;SDS011;18679;45.190;5.722;2022-10-16T03:09:03;7.25;;;2.30;;
32172;SDS011;18679;45.190;5.722;2022-10-16T03:12:04;6.88;;;1.90;;
32172;SDS011;18679;45.190;5.722;2022-10-16T03:15:05;3.00;;;1.98;;
32172;SDS011;18679;45.190;5.722;2022-10-16T03:18:07;5.22;;;2.13;;
32172;SDS011;18679;45.190;5.722;2022-10-16T03:21:08;3.90;;;1.95;;
32172;SDS011;18679;45.190;5.722;2022-10-16T03:24:09;6.05;;;1.75;;
32172;SDS011;18679;45.190;5.722;2022-10-16T03:27:09;3.60;;;1.92;;
32172;SDS011;18679;45.190;5.722;2022-10-16T03:30:10;3.63;;;1.90;;
32172;SDS011;18679;45.190;5.722;2022-10-16T03:33:11;8.93;;;2.03;;
32172;SDS011;18679;45.190;5.722;2022-10-16T03:36:12;8.35;;;2.30;;
32172;SDS011;18679;45.190;5.722;2022-10-16T03:39:13;5.72;;;2.45;;
32172;SDS011;18679;45.190;5.722;2022-10-16T03:42:14;2.97;;;1.65;;
32172;SDS011;18679;45.190;5.722;2022-10-16T03:45:15;5.72;;;2.40;;
32172;SDS011;18679;45.190;5.722;2022-10-16T03:48:16;5.05;;;2.40;;
32172;SDS011;18679;45.190;5.722;2022-10-16T03:51:17;5.20;;;2.40;;
32172;SDS011;18679;45.190;5.722;2022-10-16T03:54:18;8.15;;;2.10;;
32172;SDS011;18679;45.190;5.722;2022-10-16T03:57:19;14.65;;;2.35;;
32172;SDS011;18679;45.190;5.722;2022-10-16T04:00:21;9.20;;;2.00;;
32172;SDS011;18679;45.190;5.722;2022-10-16T04:03:22;3.42;;;2.00;;
32172;SDS011;18679;45.190;5.722;2022-10-16T04:06:23;6.38;;;1.98;;
32172;SDS011;18679;45.190;5.722;2022-10-16T04:09:24;12.05;;;2.20;;
32172;SDS011;18679;45.190;5.722;2022-10-16T04:12:25;4.38;;;2.00;;
32172;SDS011;18679;45.190;5.722;2022-10-16T04:15:27;7.72;;;2.17;;
32172;SDS011;18679;45.190;5.722;2022-10-16T04:18:28;4.40;;;1.63;;
32172;SDS011;18679;45.190;5.722;2022-10-16T04:21:29;5.00;;;2.33;;
32172;SDS011;18679;45.190;5.722;2022-10-16T04:24:30;3.08;;;1.83;;
32172;SDS011;18679;45.190;5.722;2022-10-16T04:27:31;4.63;;;2.15;;
32172;SDS011;18679;45.190;5.722;2022-10-16T04:30:32;4.40;;;1.80;;
32172;SDS011;18679;45.190;5.722;2022-10-16T04:33:33;4.40;;;2.20;;
32172;SDS011;18679;45.190;5.722;2022-10-16T04:36:34;5.15;;;2.13;;
32172;SDS011;18679;45.190;5.722;2022-10-16T04:39:35;5.25;;;1.73;;
32172;SDS011;18679;45.190;5.722;2022-10-16T04:42:36;6.90;;;1.90;;
32172;SDS011;18679;45.190;5.722;2022-10-16T04:45:37;4.93;;;2.03;;
32172;SDS011;18679;45.190;5.722;2022-10-16T04:48:38;3.05;;;2.03;;
32172;SDS011;18679;45.190;5.722;2022-10-16T04:51:39;4.03;;;1.92;;
32172;SDS011;18679;45.190;5.722;2022-10-16T04:54:40;3.50;;;1.98;;
32172;SDS011;18679;45.190;5.722;2022-10-16T04:57:41;5.57;;;2.40;;
32172;SDS011;18679;45.190;5.722;2022-10-16T05:00:42;3.03;;;1.95;;
32172;SDS011;18679;45.190;5.722;2022-10-16T05:03:44;5.40;;;2.03;;
32172;SDS011;18679;45.190;5.722;2022-10-16T05:06:47;2.85;;;1.73;;
32172;SDS011;18679;45.190;5.722;2022-10-16T05:09:48;6.63;;;2.47;;
32172;SDS011;18679;45.190;5.722;2022-10-16T05:12:49;10.20;;;2.88;;
32172;SDS011;18679;45.190;5.722;2022-10-16T05:15:51;4.47;;;2.30;;
32172;SDS011;18679;45.190;5.722;2022-10-16T05:18:52;4.97;;;2.25;;
32172;SDS011;18679;45.190;5.722;2022-10-16T05:21:53;6.10;;;2.45;;
32172;SDS011;18679;45.190;5.722;2022-10-16T05:24:54;5.10;;;3.80;;
32172;SDS011;18679;45.190;5.722;2022-10-16T05:27:55;8.35;;;4.28;;
32172;SDS011;18679;45.190;5.722;2022-10-16T05:30:56;9.07;;;5.40;;
32172;SDS011;18679;45.190;5.722;2022-10-16T05:34:00;19.27;;;11.07;;
32172;SDS011;18679;45.190;5.722;2022-10-16T05:37:01;17.63;;;12.30;;
32172;SDS011;18679;45.190;5.722;2022-10-16T05:40:03;22.40;;;15.70;;
32172;SDS011;18679;45.190;5.722;2022-10-16T05:43:05;15.20;;;9.55;;
32172;SDS011;18679;45.190;5.722;2022-10-16T05:46:06;17.52;;;12.77;;
32172;SDS011;18679;45.190;5.722;2022-10-16T05:49:07;16.17;;;10.88;;
32172;SDS011;18679;45.190;5.722;2022-10-16T05:52:09;17.33;;;11.85;;
32172;SDS011;18679;45.190;5.722;2022-10-16T05:55:10;17.13;;;9.35;;
32172;SDS011;18679;45.190;5.722;2022-10-16T05:58:10;13.15;;;6.88;;
32172;SDS011;18679;45.190;5.722;2022-10-16T06:01:12;12.82;;;6.28;;
32172;SDS011;18679;45.190;5.722;2022-10-16T06:04:15;13.30;;;3.88;;
32172;SDS011;18679;45.190;5.722;2022-10-16T06:07:17;5.68;;;3.83;;
32172;SDS011;18679;45.190;5.722;2022-10-16T06:10:18;8.82;;;3.67;;
32172;SDS011;18679;45.190;5.722;2022-10-16T06:13:19;8.45;;;4.07;;
32172;SDS011;18679;45.190;5.722;2022-10-16T06:16:20;10.00;;;4.10;;
32172;SDS011;18679;45.190;5.722;2022-10-16T06:19:21;7.00;;;3.55;;
32172;SDS011;18679;45.190;5.722;2022-10-16T06:22:23;5.20;;;3.85;;
32172;SDS011;18679;45.190;5.722;2022-10-16T06:25:23;10.95;;;4.22;;
32172;SDS011;18679;45.190;5.722;2022-10-16T06:28:25;7.68;;;4.00;;
32172;SDS011;18679;45.190;5.722;2022-10-16T06:31:28;5.45;;;3.00;;
32172;SDS011;18679;45.190;5.722;2022-10-16T06:34:31;4.15;;;3.13;;
32172;SDS011;18679;45.190;5.722;2022-10-16T06:37:31;4.47;;;2.95;;
32172;SDS011;18679;45.190;5.722;2022-10-16T06:40:32;15.65;;;3.92;;
32172;SDS011;18679;45.190;5.722;2022-10-16T06:43:33;13.27;;;2.92;;
32172;SDS011;18679;45.190;5.722;2022-10-16T06:46:37;6.13;;;2.53;;
32172;SDS011;18679;45.190;5.722;2022-10-16T06:49:37;3.25;;;2.30;;
32172;SDS011;18679;45.190;5.722;2022-10-16T06:52:38;7.32;;;2.13;;
32172;SDS011;18679;45.190;5.722;2022-10-16T06:55:39;4.45;;;1.90;;
32172;SDS011;18679;45.190;5.722;2022-10-16T06:58:40;4.13;;;2.03;;
32172;SDS011;18679;45.190;5.722;2022-10-16T07:01:42;4.20;;;2.15;;
32172;SDS011;18679;45.190;5.722;2022-10-16T07:04:43;4.80;;;2.15;;
32172;SDS011;18679;45.190;5.722;2022-10-16T07:07:43;3.58;;;1.98;;
32172;SDS011;18679;45.190;5.722;2022-10-16T07:10:44;5.53;;;1.85;;
32172;SDS011;18679;45.190;5.722;2022-10-16T07:13:46;6.70;;;2.00;;
32172;SDS011;18679;45.190;5.722;2022-10-16T07:16:47;2.90;;;1.83;;
32172;SDS011;18679;45.190;5.722;2022-10-16T07:19:48;3.28;;;2.05;;
32172;SDS011;18679;45.190;5.722;2022-10-16T07:22:50;3.25;;;2.05;;
32172;SDS011;18679;45.190;5.722;2022-10-16T07:25:54;3.53;;;1.88;;
32172;SDS011;18679;45.190;5.722;2022-10-16T07:28:56;2.80;;;1.73;;
32172;SDS011;18679;45.190;5.722;2022-10-16T07:31:57;4.13;;;1.75;;
32172;SDS011;18679;45.190;5.722;2022-10-16T07:34:58;2.83;;;1.80;;
32172;SDS011;18679;45.190;5.722;2022-10-16T07:37:59;2.75;;;1.60;;
32172;SDS011;18679;45.190;5.722;2022-10-16T07:41:01;7.03;;;1.77;;
32172;SDS011;18679;45.190;5.722;2022-10-16T07:44:06;17.90;;;6.13;;
32172;SDS011;18679;45.190;5.722;2022-10-16T07:47:07;9.38;;;1.80;;
32172;SDS011;18679;45.190;5.722;2022-10-16T07:50:08;4.60;;;1.88;;
32172;SDS011;18679;45.190;5.722;2022-10-16T07:53:09;4.63;;;1.77;;
32172;SDS011;18679;45.190;5.722;2022-10-16T07:56:11;5.38;;;1.70;;
32172;SDS011;18679;45.190;5.722;2022-10-16T07:59:12;4.05;;;1.38;;
32172;SDS011;18679;45.190;5.722;2022-10-16T08:02:13;5.57;;;2.03;;
32172;SDS011;18679;45.190;5.722;2022-10-16T08:05:14;2.70;;;1.60;;
32172;SDS011;18679;45.190;5.722;2022-10-16T08:08:16;2.15;;;1.45;;
32172;SDS011;18679;45.190;5.722;2022-10-16T08:11:18;12.13;;;2.03;;
32172;SDS011;18679;45.190;5.722;2022-10-16T08:14:19;3.17;;;1.65;;
32172;SDS011;18679;45.190;5.722;2022-10-16T08:17:20;2.33;;;1.48;;
32172;SDS011;18679;45.190;5.722;2022-10-16T08:20:21;4.18;;;2.08;;
32172;SDS011;18679;45.190;5.722;2022-10-16T08:23:22;3.10;;;1.60;;
32172;SDS011;18679;45.190;5.722;2022-10-16T08:26:23;2.97;;;1.67;;
32172;SDS011;18679;45.190;5.722;2022-10-16T08:29:24;3.75;;;1.52;;
32172;SDS011;18679;45.190;5.722;2022-10-16T08:32:25;19.13;;;6.30;;
32172;SDS011;18679;45.190;5.722;2022-10-16T08:35:25;3.97;;;2.20;;
32172;SDS011;18679;45.190;5.722;2022-10-16T08:38:26;6.50;;;2.95;;
32172;SDS011;18679;45.190;5.722;2022-10-16T08:41:32;10.07;;;4.35;;
32172;SDS011;18679;45.190;5.722;2022-10-16T08:44:56;8.35;;;3.35;;
32172;SDS011;18679;45.190;5.722;2022-10-16T08:48:22;5.78;;;2.38;;
32172;SDS011;18679;45.190;5.722;2022-10-16T08:51:36;5.53;;;1.58;;
32172;SDS011;18679;45.190;5.722;2022-10-16T08:54:37;2.40;;;1.30;;
32172;SDS011;18679;45.190;5.722;2022-10-16T08:57:43;4.28;;;1.38;;
32172;SDS011;18679;45.190;5.722;2022-10-16T09:00:53;3.35;;;1.60;;
32172;SDS011;18679;45.190;5.722;2022-10-16T09:04:02;3.28;;;1.10;;
32172;SDS011;18679;45.190;5.722;2022-10-16T09:07:49;4.97;;;1.55;;
32172;SDS011;18679;45.190;5.722;2022-10-16T09:11:03;3.47;;;1.20;;
32172;SDS011;18679;45.190;5.722;2022-10-16T09:14:36;8.32;;;1.10;;
32172;SDS011;18679;45.190;5.722;2022-10-16T09:24:15;3.10;;;1.60;;
32172;SDS011;18679;45.190;5.722;2022-10-16T09:27:17;1.90;;;1.00;;
32172;SDS011;18679;45.190;5.722;2022-10-16T09:30:20;5.10;;;1.70;;
32172;SDS011;18679;45.190;5.722;2022-10-16T09:33:25;5.75;;;1.63;;
32172;SDS011;18679;45.190;5.722;2022-10-16T09:36:40;4.05;;;1.40;;
32172;SDS011;18679;45.190;5.722;2022-10-16T09:39:44;1.70;;;1.20;;
32172;SDS011;18679;45.190;5.722;2022-10-16T09:42:46;2.50;;;1.27;;
32172;SDS011;18679;45.190;5.722;2022-10-16T09:45:54;1.88;;;1.23;;
32172;SDS011;18679;45.190;5.722;2022-10-16T09:49:00;4.22;;;1.15;;
32172;SDS011;18679;45.190;5.722;2022-10-16T09:52:09;2.35;;;1.27;;
32172;SDS011;18679;45.190;5.722;2022-10-16T09:55:14;4.18;;;1.80;;
32172;SDS011;18679;45.190;5.722;2022-10-16T09:58:17;7.10;;;1.60;;
32172;SDS011;18679;45.190;5.722;2022-10-16T10:01:21;7.47;;;1.33;;
32172;SDS011;18679;45.190;5.722;2022-10-16T10:04:39;1.50;;;1.27;;
32172;SDS011;18679;45.190;5.722;2022-10-16T10:07:59;2.95;;;1.33;;
32172;SDS011;18679;45.190;5.722;2022-10-16T10:11:08;3.78;;;1.48;;
32172;SDS011;18679;45.190;5.722;2022-10-16T10:14:17;3.78;;;1.35;;
32172;SDS011;18679;45.190;5.722;2022-10-16T10:17:20;6.75;;;1.73;;
32172;SDS011;18679;45.190;5.722;2022-10-16T10:23:28;4.45;;;1.50;;
32172;SDS011;18679;45.190;5.722;2022-10-16T10:26:33;4.43;;;2.10;;
32172;SDS011;18679;45.190;5.722;2022-10-16T10:36:38;3.92;;;1.27;;
32172;SDS011;18679;45.190;5.722;2022-10-16T10:39:47;6.57;;;1.50;;
32172;SDS011;18679;45.190;5.722;2022-10-16T10:43:01;3.38;;;1.30;;
32172;SDS011;18679;45.190;5.722;2022-10-16T10:56:24;4.40;;;1.50;;
32172;SDS011;18679;45.190;5.722;2022-10-16T11:02:42;3.42;;;1.45;;
32172;SDS011;18679;45.190;5.722;2022-10-16T11:06:08;3.65;;;1.60;;
32172;SDS011;18679;45.190;5.722;2022-10-16T11:09:28;4.03;;;1.77;;
32172;SDS011;18679;45.190;5.722;2022-10-16T11:12:44;7.63;;;1.50;;
32172;SDS011;18679;45.190;5.722;2022-10-16T11:16:25;2.60;;;1.30;;
32172;SDS011;18679;45.190;5.722;2022-10-16T11:19:42;4.95;;;1.40;;
32172;SDS011;18679;45.190;5.722;2022-10-16T11:22:54;4.32;;;1.20;;
32172;SDS011;18679;45.190;5.722;2022-10-16T11:25:59;4.28;;;1.23;;
32172;SDS011;18679;45.190;5.722;2022-10-16T11:29:10;6.05;;;1.17;;
32172;SDS011;18679;45.190;5.722;2022-10-16T11:32:32;4.15;;;1.30;;
32172;SDS011;18679;45.190;5.722;2022-10-16T11:35:56;7.45;;;1.55;;
32172;SDS011;18679;45.190;5.722;2022-10-16T11:39:11;7.78;;;1.50;;
32172;SDS011;18679;45.190;5.722;2022-10-16T11:42:21;1.77;;;1.30;;
32172;SDS011;18679;45.190;5.722;2022-10-16T11:45:39;5.28;;;1.80;;
32172;SDS011;18679;45.190;5.722;2022-10-16T11:48:51;4.50;;;1.52;;
32172;SDS011;18679;45.190;5.722;2022-10-16T11:52:05;4.57;;;1.67;;
32172;SDS011;18679;45.190;5.722;2022-10-16T11:58:28;3.90;;;1.67;;
32172;SDS011;18679;45.190;5.722;2022-10-16T12:01:41;2.00;;;1.00;;
32172;SDS011;18679;45.190;5.722;2022-10-16T12:05:15;2.78;;;1.33;;
32172;SDS011;18679;45.190;5.722;2022-10-16T12:08:19;9.10;;;1.45;;
32172;SDS011;18679;45.190;5.722;2022-10-16T12:17:36;1.90;;;1.10;;
32172;SDS011;18679;45.190;5.722;2022-10-16T12:20:38;1.33;;;0.98;;
32172;SDS011;18679;45.190;5.722;2022-10-16T12:26:46;3.25;;;1.00;;
32172;SDS011;18679;45.190;5.722;2022-10-16T12:29:48;3.17;;;1.08;;
32172;SDS011;18679;45.190;5.722;2022-10-16T12:32:57;2.30;;;1.10;;
32172;SDS011;18679;45.190;5.722;2022-10-16T12:36:04;3.20;;;1.13;;
32172;SDS011;18679;45.190;5.722;2022-10-16T12:39:27;2.05;;;0.95;;
32172;SDS011;18679;45.190;5.722;2022-10-16T12:45:33;1.38;;;1.00;;
32172;SDS011;18679;45.190;5.722;2022-10-16T12:48:35;2.13;;;1.00;;
32172;SDS011;18679;45.190;5.722;2022-10-16T12:51:40;8.23;;;1.00;;
32172;SDS011;18679;45.190;5.722;2022-10-16T12:54:42;0.90;;;0.70;;
32172;SDS011;18679;45.190;5.722;2022-10-16T13:11:05;1.77;;;0.90;;
32172;SDS011;18679;45.190;5.722;2022-10-16T13:21:37;4.78;;;1.13;;
32172;SDS011;18679;45.190;5.722;2022-10-16T13:28:42;0.90;;;0.75;;
32172;SDS011;18679;45.190;5.722;2022-10-16T13:31:43;0.77;;;0.68;;
32172;SDS011;18679;45.190;5.722;2022-10-16T13:34:46;1.48;;;0.80;;
32172;SDS011;18679;45.190;5.722;2022-10-16T13:37:49;3.63;;;0.90;;
32172;SDS011;18679;45.190;5.722;2022-10-16T13:40:57;1.27;;;0.88;;
32172;SDS011;18679;45.190;5.722;2022-10-16T13:44:19;2.45;;;0.90;;
32172;SDS011;18679;45.190;5.722;2022-10-16T13:47:22;0.75;;;0.70;;
32172;SDS011;18679;45.190;5.722;2022-10-16T13:50:24;6.65;;;0.80;;
32172;SDS011;18679;45.190;5.722;2022-10-16T13:53:25;1.60;;;0.90;;
32172;SDS011;18679;45.190;5.722;2022-10-16T13:56:27;3.05;;;0.80;;
32172;SDS011;18679;45.190;5.722;2022-10-16T13:59:33;4.75;;;0.80;;
32172;SDS011;18679;45.190;5.722;2022-10-16T14:02:37;2.50;;;1.00;;
32172;SDS011;18679;45.190;5.722;2022-10-16T14:05:47;0.93;;;0.75;;
32172;SDS011;18679;45.190;5.722;2022-10-16T14:09:00;1.77;;;0.65;;
32172;SDS011;18679;45.190;5.722;2022-10-16T14:12:08;9.32;;;0.90;;
32172;SDS011;18679;45.190;5.722;2022-10-16T14:15:17;1.98;;;0.77;;
32172;SDS011;18679;45.190;5.722;2022-10-16T14:18:21;1.70;;;0.90;;
32172;SDS011;18679;45.190;5.722;2022-10-16T14:21:23;2.08;;;0.90;;
32172;SDS011;18679;45.190;5.722;2022-10-16T14:24:31;3.00;;;0.85;;
32172;SDS011;18679;45.190;5.722;2022-10-16T14:27:36;1.80;;;1.20;;
32172;SDS011;18679;45.190;5.722;2022-10-16T14:30:37;1.38;;;0.88;;
32172;SDS011;18679;45.190;5.722;2022-10-16T14:34:00;3.95;;;1.13;;
32172;SDS011;18679;45.190;5.722;2022-10-16T14:37:01;2.78;;;0.77;;
32172;SDS011;18679;45.190;5.722;2022-10-16T14:40:11;6.47;;;0.90;;
32172;SDS011;18679;45.190;5.722;2022-10-16T14:43:22;3.90;;;0.98;;
32172;SDS011;18679;45.190;5.722;2022-10-16T14:46:30;0.85;;;0.80;;
32172;SDS011;18679;45.190;5.722;2022-10-16T14:49:34;3.15;;;1.38;;
32172;SDS011;18679;45.190;5.722;2022-10-16T14:52:35;1.58;;;0.65;;
32172;SDS011;18679;45.190;5.722;2022-10-16T14:55:36;3.03;;;0.85;;
32172;SDS011;18679;45.190;5.722;2022-10-16T14:58:38;7.70;;;0.95;;
32172;SDS011;18679;45.190;5.722;2022-10-16T15:01:39;1.95;;;1.10;;
32172;SDS011;18679;45.190;5.722;2022-10-16T15:04:41;5.47;;;0.82;;
32172;SDS011;18679;45.190;5.722;2022-10-16T15:07:42;1.35;;;0.80;;
32172;SDS011;18679;45.190;5.722;2022-10-16T15:10:44;3.53;;;0.80;;
32172;SDS011;18679;45.190;5.722;2022-10-16T15:13:45;1.77;;;0.70;;
32172;SDS011;18679;45.190;5.722;2022-10-16T15:16:46;2.80;;;0.80;;
32172;SDS011;18679;45.190;5.722;2022-10-16T15:19:47;1.83;;;0.80;;
32172;SDS011;18679;45.190;5.722;2022-10-16T15:22:48;4.03;;;0.70;;
32172;SDS011;18679;45.190;5.722;2022-10-16T15:25:50;2.03;;;0.90;;
32172;SDS011;18679;45.190;5.722;2022-10-16T15:28:53;1.00;;;0.82;;
32172;SDS011;18679;45.190;5.722;2022-10-16T15:31:54;2.25;;;0.95;;
32172;SDS011;18679;45.190;5.722;2022-10-16T15:34:55;1.98;;;1.02;;
32172;SDS011;18679;45.190;5.722;2022-10-16T15:37:56;19.70;;;1.15;;
32172;SDS011;18679;45.190;5.722;2022-10-16T15:40:57;3.58;;;0.90;;
32172;SDS011;18679;45.190;5.722;2022-10-16T15:43:58;3.08;;;0.98;;
32172;SDS011;18679;45.190;5.722;2022-10-16T15:46:59;4.10;;;0.93;;
32172;SDS011;18679;45.190;5.722;2022-10-16T15:50:01;3.45;;;0.90;;
32172;SDS011;18679;45.190;5.722;2022-10-16T15:53:03;8.25;;;1.10;;
32172;SDS011;18679;45.190;5.722;2022-10-16T15:56:04;4.07;;;1.00;;
32172;SDS011;18679;45.190;5.722;2022-10-16T15:59:08;4.00;;;1.23;;
32172;SDS011;18679;45.190;5.722;2022-10-16T16:02:09;3.00;;;0.80;;
32172;SDS011;18679;45.190;5.722;2022-10-16T16:05:10;1.48;;;0.90;;
32172;SDS011;18679;45.190;5.722;2022-10-16T16:08:11;2.80;;;1.08;;
32172;SDS011;18679;45.190;5.722;2022-10-16T16:11:13;4.28;;;1.17;;
32172;SDS011;18679;45.190;5.722;2022-10-16T16:14:15;2.85;;;0.93;;
32172;SDS011;18679;45.190;5.722;2022-10-16T16:17:16;2.97;;;1.10;;
32172;SDS011;18679;45.190;5.722;2022-10-16T16:20:17;1.65;;;0.85;;
32172;SDS011;18679;45.190;5.722;2022-10-16T16:23:19;3.13;;;1.25;;
32172;SDS011;18679;45.190;5.722;2022-10-16T16:26:24;1.08;;;0.80;;
32172;SDS011;18679;45.190;5.722;2022-10-16T16:29:26;3.30;;;0.90;;
32172;SDS011;18679;45.190;5.722;2022-10-16T16:32:27;2.22;;;1.20;;
32172;SDS011;18679;45.190;5.722;2022-10-16T16:35:27;2.13;;;1.38;;
32172;SDS011;18679;45.190;5.722;2022-10-16T16:38:28;2.63;;;1.35;;
32172;SDS011;18679;45.190;5.722;2022-10-16T16:41:29;5.47;;;1.13;;
32172;SDS011;18679;45.190;5.722;2022-10-16T16:44:31;1.25;;;0.88;;
32172;SDS011;18679;45.190;5.722;2022-10-16T16:47:32;2.75;;;1.10;;
32172;SDS011;18679;45.190;5.722;2022-10-16T16:50:36;6.22;;;1.30;;
32172;SDS011;18679;45.190;5.722;2022-10-16T16:53:37;1.35;;;1.10;;
32172;SDS011;18679;45.190;5.722;2022-10-16T16:56:38;4.38;;;1.33;;
32172;SDS011;18679;45.190;5.722;2022-10-16T16:59:42;2.08;;;1.20;;
32172;SDS011;18679;45.190;5.722;2022-10-16T17:02:43;9.95;;;1.00;;
32172;SDS011;18679;45.190;5.722;2022-10-16T17:09:19;3.60;;;0.98;;
32172;SDS011;18679;45.190;5.722;2022-10-16T17:12:21;2.70;;;1.00;;
32172;SDS011;18679;45.190;5.722;2022-10-16T17:15:22;3.63;;;1.08;;
32172;SDS011;18679;45.190;5.722;2022-10-16T17:18:23;4.35;;;1.27;;
32172;SDS011;18679;45.190;5.722;2022-10-16T17:21:24;4.40;;;1.30;;
32172;SDS011;18679;45.190;5.722;2022-10-16T17:24:27;4.00;;;1.00;;
32172;SDS011;18679;45.190;5.722;2022-10-16T17:27:28;5.10;;;1.20;;
32172;SDS011;18679;45.190;5.722;2022-10-16T17:30:29;3.65;;;1.17;;
32172;SDS011;18679;45.190;5.722;2022-10-16T17:33:30;3.70;;;1.20;;
32172;SDS011;18679;45.190;5.722;2022-10-16T17:36:31;1.55;;;1.10;;
32172;SDS011;18679;45.190;5.722;2022-10-16T17:39:33;1.98;;;1.25;;
32172;SDS011;18679;45.190;5.722;2022-10-16T17:42:34;7.50;;;1.60;;
32172;SDS011;18679;45.190;5.722;2022-10-16T17:45:36;4.40;;;1.45;;
32172;SDS011;18679;45.190;5.722;2022-10-16T17:48:40;3.78;;;1.58;;
32172;SDS011;18679;45.190;5.722;2022-10-16T17:51:44;6.63;;;1.58;;
32172;SDS011;18679;45.190;5.722;2022-10-16T17:54:49;2.70;;;1.40;;
32172;SDS011;18679;45.190;5.722;2022-10-16T17:57:51;3.80;;;1.73;;
32172;SDS011;18679;45.190;5.722;2022-10-16T18:00:52;3.60;;;1.50;;
32172;SDS011;18679;45.190;5.722;2022-10-16T18:03:56;4.93;;;2.00;;
32172;SDS011;18679;45.190;5.722;2022-10-16T18:07:00;2.15;;;1.58;;
32172;SDS011;18679;45.190;5.722;2022-10-16T18:10:02;3.40;;;1.05;;
32172;SDS011;18679;45.190;5.722;2022-10-16T18:13:07;2.92;;;1.25;;
32172;SDS011;18679;45.190;5.722;2022-10-16T18:16:10;4.50;;;1.45;;
32172;SDS011;18679;45.190;5.722;2022-10-16T18:19:12;4.63;;;1.30;;
32172;SDS011;18679;45.190;5.722;2022-10-16T18:22:13;3.50;;;1.73;;
32172;SDS011;18679;45.190;5.722;2022-10-16T18:25:14;5.05;;;1.90;;
32172;SDS011;18679;45.190;5.722;2022-10-16T18:28:15;3.08;;;1.40;;
32172;SDS011;18679;45.190;5.722;2022-10-16T18:31:16;4.53;;;1.48;;
32172;SDS011;18679;45.190;5.722;2022-10-16T18:34:18;3.47;;;1.48;;
32172;SDS011;18679;45.190;5.722;2022-10-16T18:37:20;3.92;;;1.30;;
32172;SDS011;18679;45.190;5.722;2022-10-16T18:40:21;2.53;;;1.48;;
32172;SDS011;18679;45.190;5.722;2022-10-16T18:43:22;2.58;;;1.13;;
32172;SDS011;18679;45.190;5.722;2022-10-16T18:46:24;5.72;;;1.60;;
32172;SDS011;18679;45.190;5.722;2022-10-16T18:49:25;2.78;;;1.23;;
32172;SDS011;18679;45.190;5.722;2022-10-16T18:52:28;2.75;;;1.10;;
32172;SDS011;18679;45.190;5.722;2022-10-16T18:55:30;2.33;;;1.13;;
32172;SDS011;18679;45.190;5.722;2022-10-16T18:58:33;3.00;;;1.05;;
32172;SDS011;18679;45.190;5.722;2022-10-16T19:01:35;2.63;;;1.60;;
32172;SDS011;18679;45.190;5.722;2022-10-16T19:04:39;4.10;;;1.40;;
32172;SDS011;18679;45.190;5.722;2022-10-16T19:07:43;2.03;;;1.52;;
32172;SDS011;18679;45.190;5.722;2022-10-16T19:10:45;3.40;;;1.42;;
32172;SDS011;18679;45.190;5.722;2022-10-16T19:13:46;5.13;;;1.80;;
32172;SDS011;18679;45.190;5.722;2022-10-16T19:16:48;3.65;;;1.13;;
32172;SDS011;18679;45.190;5.722;2022-10-16T19:19:49;7.20;;;1.75;;
32172;SDS011;18679;45.190;5.722;2022-10-16T19:22:50;3.53;;;1.65;;
32172;SDS011;18679;45.190;5.722;2022-10-16T19:25:53;5.78;;;2.15;;
32172;SDS011;18679;45.190;5.722;2022-10-16T19:28:54;7.20;;;2.25;;
32172;SDS011;18679;45.190;5.722;2022-10-16T19:31:58;10.32;;;1.90;;
32172;SDS011;18679;45.190;5.722;2022-10-16T19:35:01;4.47;;;2.00;;
32172;SDS011;18679;45.190;5.722;2022-10-16T19:38:02;3.08;;;2.00;;
32172;SDS011;18679;45.190;5.722;2022-10-16T19:41:10;4.07;;;1.60;;
32172;SDS011;18679;45.190;5.722;2022-10-16T19:44:14;7.72;;;1.90;;
32172;SDS011;18679;45.190;5.722;2022-10-16T19:47:15;11.50;;;2.72;;
32172;SDS011;18679;45.190;5.722;2022-10-16T19:50:16;6.40;;;2.15;;
32172;SDS011;18679;45.190;5.722;2022-10-16T19:53:18;5.22;;;2.17;;